sensor_id;sensor_type;location;lat;lon;timestamp;P1;durP1;ratioP1;P2;durP2;ratioP2
80101;SDS011;69407;44.966;19.622;2023-07-09T00:01:56;10.45;;;6.78;;
80101;SDS011;69407;44.966;19.622;2023-07-09T00:04:21;12.50;;;6.90;;
80101;SDS011;69407;44.966;19.622;2023-07-09T00:06:47;14.50;;;7.10;;
80101;SDS011;69407;44.966;19.622;2023-07-09T00:09:14;13.43;;;6.13;;
80101;SDS011;69407;44.966;19.622;2023-07-09T00:14:07;11.25;;;5.53;;
80101;SDS011;69407;44.966;19.622;2023-07-09T00:16:34;13.10;;;6.32;;
80101;SDS011;69407;44.966;19.622;2023-07-09T00:19:00;12.25;;;6.70;;
80101;SDS011;69407;44.966;19.622;2023-07-09T00:21:27;12.57;;;6.68;;
80101;SDS011;69407;44.966;19.622;2023-07-09T00:23:58;10.60;;;6.90;;
80101;SDS011;69407;44.966;19.622;2023-07-09T00:26:29;10.88;;;6.93;;
80101;SDS011;69407;44.966;19.622;2023-07-09T00:28:59;12.00;;;5.47;;
80101;SDS011;69407;44.966;19.622;2023-07-09T00:31:25;11.65;;;5.40;;
80101;SDS011;69407;44.966;19.622;2023-07-09T00:33:51;9.35;;;5.78;;
80101;SDS011;69407;44.966;19.622;2023-07-09T00:36:18;11.25;;;5.50;;
80101;SDS011;69407;44.966;19.622;2023-07-09T00:38:50;11.65;;;5.60;;
80101;SDS011;69407;44.966;19.622;2023-07-09T00:41:20;10.05;;;5.80;;
80101;SDS011;69407;44.966;19.622;2023-07-09T00:43:48;11.02;;;6.07;;
80101;SDS011;69407;44.966;19.622;2023-07-09T00:48:53;9.43;;;5.20;;
80101;SDS011;69407;44.966;19.622;2023-07-09T00:51:23;12.80;;;6.90;;
80101;SDS011;69407;44.966;19.622;2023-07-09T00:53:55;12.07;;;6.53;;
80101;SDS011;69407;44.966;19.622;2023-07-09T00:56:28;12.43;;;6.57;;
80101;SDS011;69407;44.966;19.622;2023-07-09T00:58:56;12.23;;;6.40;;
80101;SDS011;69407;44.966;19.622;2023-07-09T01:01:29;11.35;;;5.95;;
80101;SDS011;69407;44.966;19.622;2023-07-09T01:03:56;10.27;;;5.13;;
80101;SDS011;69407;44.966;19.622;2023-07-09T01:06:31;10.90;;;5.60;;
80101;SDS011;69407;44.966;19.622;2023-07-09T01:09:01;11.00;;;5.38;;
80101;SDS011;69407;44.966;19.622;2023-07-09T01:11:28;14.27;;;7.18;;
80101;SDS011;69407;44.966;19.622;2023-07-09T01:13:55;13.45;;;7.25;;
80101;SDS011;69407;44.966;19.622;2023-07-09T01:16:24;10.82;;;6.65;;
80101;SDS011;69407;44.966;19.622;2023-07-09T01:18:52;16.20;;;7.22;;
80101;SDS011;69407;44.966;19.622;2023-07-09T01:21:18;11.65;;;7.20;;
80101;SDS011;69407;44.966;19.622;2023-07-09T01:23:44;9.82;;;6.03;;
80101;SDS011;69407;44.966;19.622;2023-07-09T01:26:12;11.18;;;5.70;;
80101;SDS011;69407;44.966;19.622;2023-07-09T01:28:39;11.05;;;6.97;;
80101;SDS011;69407;44.966;19.622;2023-07-09T01:31:09;12.63;;;7.15;;
80101;SDS011;69407;44.966;19.622;2023-07-09T01:33:36;14.25;;;6.75;;
80101;SDS011;69407;44.966;19.622;2023-07-09T01:36:05;10.35;;;5.97;;
80101;SDS011;69407;44.966;19.622;2023-07-09T01:40:58;11.63;;;6.95;;
80101;SDS011;69407;44.966;19.622;2023-07-09T01:43:25;16.58;;;8.48;;
80101;SDS011;69407;44.966;19.622;2023-07-09T01:45:51;13.88;;;8.82;;
80101;SDS011;69407;44.966;19.622;2023-07-09T01:48:19;18.30;;;7.40;;
80101;SDS011;69407;44.966;19.622;2023-07-09T01:50:45;15.75;;;9.10;;
80101;SDS011;69407;44.966;19.622;2023-07-09T01:53:14;14.15;;;7.35;;
80101;SDS011;69407;44.966;19.622;2023-07-09T01:55:43;15.15;;;7.13;;
80101;SDS011;69407;44.966;19.622;2023-07-09T01:58:09;15.10;;;8.13;;
80101;SDS011;69407;44.966;19.622;2023-07-09T02:00:36;12.57;;;7.95;;
80101;SDS011;69407;44.966;19.622;2023-07-09T02:03:03;17.27;;;6.93;;
80101;SDS011;69407;44.966;19.622;2023-07-09T02:05:32;10.68;;;6.30;;
80101;SDS011;69407;44.966;19.622;2023-07-09T02:07:58;12.90;;;6.70;;
80101;SDS011;69407;44.966;19.622;2023-07-09T02:10:25;11.77;;;8.18;;
80101;SDS011;69407;44.966;19.622;2023-07-09T02:12:51;11.57;;;6.72;;
80101;SDS011;69407;44.966;19.622;2023-07-09T02:15:16;13.13;;;7.63;;
80101;SDS011;69407;44.966;19.622;2023-07-09T02:17:42;14.43;;;7.50;;
80101;SDS011;69407;44.966;19.622;2023-07-09T02:20:09;13.20;;;7.05;;
80101;SDS011;69407;44.966;19.622;2023-07-09T02:22:36;11.23;;;6.60;;
80101;SDS011;69407;44.966;19.622;2023-07-09T02:25:03;15.68;;;7.63;;
80101;SDS011;69407;44.966;19.622;2023-07-09T02:27:30;12.10;;;6.32;;
80101;SDS011;69407;44.966;19.622;2023-07-09T02:29:56;12.60;;;6.97;;
80101;SDS011;69407;44.966;19.622;2023-07-09T02:32:23;16.98;;;8.73;;
80101;SDS011;69407;44.966;19.622;2023-07-09T02:34:51;16.23;;;9.05;;
80101;SDS011;69407;44.966;19.622;2023-07-09T02:37:19;19.35;;;9.77;;
80101;SDS011;69407;44.966;19.622;2023-07-09T02:39:48;20.35;;;10.25;;
80101;SDS011;69407;44.966;19.622;2023-07-09T02:42:15;24.55;;;12.45;;
80101;SDS011;69407;44.966;19.622;2023-07-09T02:44:41;22.33;;;11.95;;
80101;SDS011;69407;44.966;19.622;2023-07-09T02:47:08;24.63;;;11.00;;
80101;SDS011;69407;44.966;19.622;2023-07-09T02:49:34;23.20;;;11.63;;
80101;SDS011;69407;44.966;19.622;2023-07-09T02:52:00;23.20;;;12.95;;
80101;SDS011;69407;44.966;19.622;2023-07-09T02:54:26;25.92;;;13.27;;
80101;SDS011;69407;44.966;19.622;2023-07-09T02:56:51;26.85;;;11.95;;
80101;SDS011;69407;44.966;19.622;2023-07-09T02:59:17;26.30;;;12.52;;
80101;SDS011;69407;44.966;19.622;2023-07-09T03:01:43;22.83;;;13.40;;
80101;SDS011;69407;44.966;19.622;2023-07-09T03:04:08;26.65;;;12.18;;
80101;SDS011;69407;44.966;19.622;2023-07-09T03:06:34;22.95;;;12.27;;
80101;SDS011;69407;44.966;19.622;2023-07-09T03:09:01;23.35;;;11.35;;
80101;SDS011;69407;44.966;19.622;2023-07-09T03:11:30;21.60;;;11.32;;
80101;SDS011;69407;44.966;19.622;2023-07-09T03:13:57;20.30;;;10.95;;
80101;SDS011;69407;44.966;19.622;2023-07-09T03:16:25;21.92;;;10.15;;
80101;SDS011;69407;44.966;19.622;2023-07-09T03:18:53;20.33;;;10.38;;
80101;SDS011;69407;44.966;19.622;2023-07-09T03:21:19;17.80;;;10.18;;
80101;SDS011;69407;44.966;19.622;2023-07-09T03:23:45;14.20;;;7.85;;
80101;SDS011;69407;44.966;19.622;2023-07-09T03:26:11;14.48;;;8.82;;
80101;SDS011;69407;44.966;19.622;2023-07-09T03:28:37;14.90;;;8.82;;
80101;SDS011;69407;44.966;19.622;2023-07-09T03:31:02;16.55;;;8.90;;
80101;SDS011;69407;44.966;19.622;2023-07-09T03:33:28;17.10;;;7.90;;
80101;SDS011;69407;44.966;19.622;2023-07-09T03:35:53;17.90;;;9.35;;
80101;SDS011;69407;44.966;19.622;2023-07-09T03:38:19;15.88;;;7.70;;
80101;SDS011;69407;44.966;19.622;2023-07-09T03:40:45;16.88;;;8.93;;
80101;SDS011;69407;44.966;19.622;2023-07-09T03:43:10;15.00;;;7.68;;
80101;SDS011;69407;44.966;19.622;2023-07-09T03:45:36;15.77;;;8.45;;
80101;SDS011;69407;44.966;19.622;2023-07-09T03:48:03;10.38;;;7.45;;
80101;SDS011;69407;44.966;19.622;2023-07-09T03:50:30;11.02;;;7.47;;
80101;SDS011;69407;44.966;19.622;2023-07-09T03:52:56;15.63;;;8.02;;
80101;SDS011;69407;44.966;19.622;2023-07-09T03:55:22;16.15;;;8.35;;
80101;SDS011;69407;44.966;19.622;2023-07-09T03:57:52;14.10;;;7.72;;
80101;SDS011;69407;44.966;19.622;2023-07-09T04:00:20;13.38;;;8.25;;
80101;SDS011;69407;44.966;19.622;2023-07-09T04:02:46;13.38;;;7.18;;
80101;SDS011;69407;44.966;19.622;2023-07-09T04:05:12;13.43;;;8.07;;
80101;SDS011;69407;44.966;19.622;2023-07-09T04:07:38;9.85;;;6.28;;
80101;SDS011;69407;44.966;19.622;2023-07-09T04:10:04;11.52;;;6.75;;
80101;SDS011;69407;44.966;19.622;2023-07-09T04:12:30;13.77;;;5.63;;
80101;SDS011;69407;44.966;19.622;2023-07-09T04:14:56;10.98;;;6.25;;
80101;SDS011;69407;44.966;19.622;2023-07-09T04:17:21;8.32;;;5.75;;
80101;SDS011;69407;44.966;19.622;2023-07-09T04:19:48;9.75;;;7.03;;
80101;SDS011;69407;44.966;19.622;2023-07-09T04:22:14;10.38;;;7.03;;
80101;SDS011;69407;44.966;19.622;2023-07-09T04:24:40;9.13;;;6.10;;
80101;SDS011;69407;44.966;19.622;2023-07-09T04:27:05;11.45;;;6.88;;
80101;SDS011;69407;44.966;19.622;2023-07-09T04:29:31;9.95;;;5.28;;
80101;SDS011;69407;44.966;19.622;2023-07-09T04:32:18;9.48;;;6.50;;
80101;SDS011;69407;44.966;19.622;2023-07-09T04:34:45;12.27;;;6.00;;
80101;SDS011;69407;44.966;19.622;2023-07-09T04:37:10;11.82;;;6.57;;
80101;SDS011;69407;44.966;19.622;2023-07-09T04:39:40;9.52;;;5.65;;
80101;SDS011;69407;44.966;19.622;2023-07-09T04:42:06;10.00;;;5.75;;
80101;SDS011;69407;44.966;19.622;2023-07-09T04:44:35;13.93;;;6.82;;
80101;SDS011;69407;44.966;19.622;2023-07-09T04:47:00;8.50;;;6.55;;
80101;SDS011;69407;44.966;19.622;2023-07-09T04:49:26;11.15;;;5.65;;
80101;SDS011;69407;44.966;19.622;2023-07-09T04:51:51;12.90;;;6.97;;
80101;SDS011;69407;44.966;19.622;2023-07-09T04:54:17;12.80;;;6.68;;
80101;SDS011;69407;44.966;19.622;2023-07-09T04:56:42;11.45;;;6.40;;
80101;SDS011;69407;44.966;19.622;2023-07-09T04:59:11;9.25;;;6.25;;
80101;SDS011;69407;44.966;19.622;2023-07-09T05:01:37;9.43;;;6.57;;
80101;SDS011;69407;44.966;19.622;2023-07-09T05:04:03;15.80;;;8.23;;
80101;SDS011;69407;44.966;19.622;2023-07-09T05:06:29;14.35;;;6.60;;
80101;SDS011;69407;44.966;19.622;2023-07-09T05:08:54;9.63;;;6.45;;
80101;SDS011;69407;44.966;19.622;2023-07-09T05:11:20;12.05;;;7.80;;
80101;SDS011;69407;44.966;19.622;2023-07-09T05:13:45;11.48;;;7.05;;
80101;SDS011;69407;44.966;19.622;2023-07-09T05:16:11;10.77;;;5.85;;
80101;SDS011;69407;44.966;19.622;2023-07-09T05:18:36;11.00;;;6.93;;
80101;SDS011;69407;44.966;19.622;2023-07-09T05:21:02;10.18;;;6.85;;
80101;SDS011;69407;44.966;19.622;2023-07-09T05:23:28;16.27;;;8.32;;
80101;SDS011;69407;44.966;19.622;2023-07-09T05:25:59;13.88;;;6.28;;
80101;SDS011;69407;44.966;19.622;2023-07-09T05:28:26;14.27;;;7.82;;
80101;SDS011;69407;44.966;19.622;2023-07-09T05:30:53;12.57;;;7.03;;
80101;SDS011;69407;44.966;19.622;2023-07-09T05:33:19;10.18;;;6.88;;
80101;SDS011;69407;44.966;19.622;2023-07-09T05:35:45;11.20;;;7.13;;
80101;SDS011;69407;44.966;19.622;2023-07-09T05:38:14;13.90;;;7.25;;
80101;SDS011;69407;44.966;19.622;2023-07-09T05:40:40;10.40;;;6.22;;
80101;SDS011;69407;44.966;19.622;2023-07-09T05:43:07;10.60;;;6.78;;
80101;SDS011;69407;44.966;19.622;2023-07-09T05:45:32;11.98;;;6.78;;
80101;SDS011;69407;44.966;19.622;2023-07-09T05:47:58;11.65;;;7.32;;
80101;SDS011;69407;44.966;19.622;2023-07-09T05:50:24;8.52;;;5.45;;
80101;SDS011;69407;44.966;19.622;2023-07-09T05:52:51;9.95;;;6.78;;
80101;SDS011;69407;44.966;19.622;2023-07-09T05:55:16;8.85;;;6.22;;
80101;SDS011;69407;44.966;19.622;2023-07-09T05:57:42;11.50;;;6.07;;
80101;SDS011;69407;44.966;19.622;2023-07-09T06:00:08;13.20;;;6.95;;
80101;SDS011;69407;44.966;19.622;2023-07-09T06:02:34;11.10;;;5.63;;
80101;SDS011;69407;44.966;19.622;2023-07-09T06:05:00;11.90;;;5.68;;
80101;SDS011;69407;44.966;19.622;2023-07-09T06:07:28;10.15;;;5.97;;
80101;SDS011;69407;44.966;19.622;2023-07-09T06:09:54;10.00;;;5.68;;
80101;SDS011;69407;44.966;19.622;2023-07-09T06:12:19;12.13;;;5.40;;
80101;SDS011;69407;44.966;19.622;2023-07-09T06:14:45;11.30;;;7.25;;
80101;SDS011;69407;44.966;19.622;2023-07-09T06:17:11;14.38;;;6.68;;
80101;SDS011;69407;44.966;19.622;2023-07-09T06:19:37;10.43;;;5.90;;
80101;SDS011;69407;44.966;19.622;2023-07-09T06:22:03;11.70;;;6.32;;
80101;SDS011;69407;44.966;19.622;2023-07-09T06:24:29;9.55;;;5.43;;
80101;SDS011;69407;44.966;19.622;2023-07-09T06:26:55;8.25;;;6.18;;
80101;SDS011;69407;44.966;19.622;2023-07-09T06:29:20;9.02;;;6.65;;
80101;SDS011;69407;44.966;19.622;2023-07-09T06:31:46;9.40;;;5.68;;
80101;SDS011;69407;44.966;19.622;2023-07-09T06:34:12;11.15;;;5.95;;
80101;SDS011;69407;44.966;19.622;2023-07-09T06:36:38;8.23;;;5.05;;
80101;SDS011;69407;44.966;19.622;2023-07-09T06:39:03;9.88;;;6.25;;
80101;SDS011;69407;44.966;19.622;2023-07-09T06:41:29;9.48;;;5.60;;
80101;SDS011;69407;44.966;19.622;2023-07-09T06:43:54;9.05;;;4.28;;
80101;SDS011;69407;44.966;19.622;2023-07-09T06:46:20;9.32;;;5.68;;
80101;SDS011;69407;44.966;19.622;2023-07-09T06:48:46;7.38;;;5.40;;
80101;SDS011;69407;44.966;19.622;2023-07-09T06:51:11;6.47;;;4.38;;
80101;SDS011;69407;44.966;19.622;2023-07-09T06:53:37;6.88;;;4.18;;
80101;SDS011;69407;44.966;19.622;2023-07-09T06:56:02;7.93;;;4.85;;
80101;SDS011;69407;44.966;19.622;2023-07-09T06:58:29;7.55;;;3.97;;
80101;SDS011;69407;44.966;19.622;2023-07-09T07:00:57;9.75;;;4.53;;
80101;SDS011;69407;44.966;19.622;2023-07-09T07:03:28;11.35;;;5.43;;
80101;SDS011;69407;44.966;19.622;2023-07-09T07:05:54;8.77;;;3.35;;
80101;SDS011;69407;44.966;19.622;2023-07-09T07:08:21;5.72;;;4.65;;
80101;SDS011;69407;44.966;19.622;2023-07-09T07:10:48;7.07;;;4.72;;
80101;SDS011;69407;44.966;19.622;2023-07-09T07:13:15;6.85;;;4.90;;
80101;SDS011;69407;44.966;19.622;2023-07-09T07:15:47;13.88;;;4.05;;
80101;SDS011;69407;44.966;19.622;2023-07-09T07:18:14;8.45;;;4.93;;
80101;SDS011;69407;44.966;19.622;2023-07-09T07:20:40;7.90;;;5.47;;
80101;SDS011;69407;44.966;19.622;2023-07-09T07:23:05;8.15;;;4.78;;
80101;SDS011;69407;44.966;19.622;2023-07-09T07:25:31;7.22;;;3.53;;
80101;SDS011;69407;44.966;19.622;2023-07-09T07:27:57;5.40;;;4.30;;
80101;SDS011;69407;44.966;19.622;2023-07-09T07:30:23;4.60;;;3.42;;
80101;SDS011;69407;44.966;19.622;2023-07-09T07:32:49;4.75;;;3.72;;
80101;SDS011;69407;44.966;19.622;2023-07-09T07:35:14;5.60;;;3.55;;
80101;SDS011;69407;44.966;19.622;2023-07-09T07:37:40;6.35;;;4.40;;
80101;SDS011;69407;44.966;19.622;2023-07-09T07:40:07;6.28;;;4.43;;
80101;SDS011;69407;44.966;19.622;2023-07-09T07:42:33;5.35;;;4.00;;
80101;SDS011;69407;44.966;19.622;2023-07-09T07:44:59;6.28;;;3.67;;
80101;SDS011;69407;44.966;19.622;2023-07-09T07:47:25;4.57;;;3.10;;
80101;SDS011;69407;44.966;19.622;2023-07-09T07:49:52;4.75;;;2.75;;
80101;SDS011;69407;44.966;19.622;2023-07-09T07:52:18;7.05;;;2.90;;
80101;SDS011;69407;44.966;19.622;2023-07-09T07:54:44;6.03;;;3.90;;
80101;SDS011;69407;44.966;19.622;2023-07-09T07:57:09;5.35;;;3.63;;
80101;SDS011;69407;44.966;19.622;2023-07-09T07:59:36;4.95;;;2.50;;
80101;SDS011;69407;44.966;19.622;2023-07-09T08:02:02;4.03;;;2.72;;
80101;SDS011;69407;44.966;19.622;2023-07-09T08:04:29;3.22;;;1.98;;
80101;SDS011;69407;44.966;19.622;2023-07-09T08:06:54;4.72;;;2.33;;
80101;SDS011;69407;44.966;19.622;2023-07-09T08:09:20;3.53;;;2.15;;
80101;SDS011;69407;44.966;19.622;2023-07-09T08:11:46;4.20;;;2.28;;
80101;SDS011;69407;44.966;19.622;2023-07-09T08:14:11;3.40;;;1.92;;
80101;SDS011;69407;44.966;19.622;2023-07-09T08:16:37;5.40;;;2.33;;
80101;SDS011;69407;44.966;19.622;2023-07-09T08:19:03;3.22;;;1.85;;
80101;SDS011;69407;44.966;19.622;2023-07-09T08:21:28;5.10;;;2.10;;
80101;SDS011;69407;44.966;19.622;2023-07-09T08:23:54;4.53;;;2.25;;
80101;SDS011;69407;44.966;19.622;2023-07-09T08:26:19;3.60;;;3.13;;
80101;SDS011;69407;44.966;19.622;2023-07-09T08:28:44;6.78;;;3.47;;
80101;SDS011;69407;44.966;19.622;2023-07-09T08:31:10;3.58;;;2.55;;
80101;SDS011;69407;44.966;19.622;2023-07-09T08:33:35;3.75;;;3.15;;
80101;SDS011;69407;44.966;19.622;2023-07-09T08:36:01;3.15;;;2.03;;
80101;SDS011;69407;44.966;19.622;2023-07-09T08:38:28;3.35;;;1.52;;
80101;SDS011;69407;44.966;19.622;2023-07-09T08:40:57;4.93;;;2.00;;
80101;SDS011;69407;44.966;19.622;2023-07-09T08:46:06;3.42;;;2.20;;
80101;SDS011;69407;44.966;19.622;2023-07-09T08:48:33;3.10;;;2.45;;
80101;SDS011;69407;44.966;19.622;2023-07-09T08:51:07;4.03;;;1.77;;
80101;SDS011;69407;44.966;19.622;2023-07-09T08:53:42;4.20;;;1.83;;
80101;SDS011;69407;44.966;19.622;2023-07-09T08:56:13;3.80;;;1.75;;
80101;SDS011;69407;44.966;19.622;2023-07-09T08:58:40;2.85;;;2.00;;
80101;SDS011;69407;44.966;19.622;2023-07-09T09:01:11;5.68;;;2.20;;
80101;SDS011;69407;44.966;19.622;2023-07-09T09:03:52;3.97;;;2.72;;
80101;SDS011;69407;44.966;19.622;2023-07-09T09:06:27;6.93;;;2.13;;
80101;SDS011;69407;44.966;19.622;2023-07-09T09:09:08;8.57;;;2.53;;
80101;SDS011;69407;44.966;19.622;2023-07-09T09:11:52;4.50;;;1.92;;
80101;SDS011;69407;44.966;19.622;2023-07-09T09:14:41;3.22;;;2.08;;
80101;SDS011;69407;44.966;19.622;2023-07-09T09:17:17;3.83;;;1.77;;
80101;SDS011;69407;44.966;19.622;2023-07-09T09:20:17;5.78;;;2.10;;
80101;SDS011;69407;44.966;19.622;2023-07-09T09:23:08;6.32;;;2.83;;
80101;SDS011;69407;44.966;19.622;2023-07-09T09:25:40;3.08;;;1.75;;
80101;SDS011;69407;44.966;19.622;2023-07-09T09:28:09;4.45;;;2.08;;
80101;SDS011;69407;44.966;19.622;2023-07-09T09:30:35;3.88;;;2.25;;
80101;SDS011;69407;44.966;19.622;2023-07-09T09:33:01;3.15;;;2.10;;
80101;SDS011;69407;44.966;19.622;2023-07-09T09:35:34;6.32;;;3.60;;
80101;SDS011;69407;44.966;19.622;2023-07-09T09:38:12;3.88;;;2.53;;
80101;SDS011;69407;44.966;19.622;2023-07-09T09:40:42;4.07;;;2.03;;
80101;SDS011;69407;44.966;19.622;2023-07-09T09:43:15;6.70;;;2.13;;
80101;SDS011;69407;44.966;19.622;2023-07-09T09:45:45;4.13;;;2.10;;
80101;SDS011;69407;44.966;19.622;2023-07-09T09:48:20;3.60;;;2.20;;
80101;SDS011;69407;44.966;19.622;2023-07-09T09:50:52;4.85;;;2.03;;
80101;SDS011;69407;44.966;19.622;2023-07-09T09:53:19;11.70;;;8.52;;
80101;SDS011;69407;44.966;19.622;2023-07-09T09:55:47;8.80;;;7.55;;
80101;SDS011;69407;44.966;19.622;2023-07-09T09:58:14;3.90;;;1.92;;
80101;SDS011;69407;44.966;19.622;2023-07-09T10:00:46;4.63;;;2.13;;
80101;SDS011;69407;44.966;19.622;2023-07-09T10:03:17;4.63;;;2.00;;
80101;SDS011;69407;44.966;19.622;2023-07-09T10:05:44;5.75;;;1.98;;
80101;SDS011;69407;44.966;19.622;2023-07-09T10:08:17;4.85;;;2.00;;
80101;SDS011;69407;44.966;19.622;2023-07-09T10:10:47;4.57;;;1.83;;
80101;SDS011;69407;44.966;19.622;2023-07-09T10:13:17;2.65;;;2.13;;
80101;SDS011;69407;44.966;19.622;2023-07-09T10:15:59;4.78;;;1.73;;
80101;SDS011;69407;44.966;19.622;2023-07-09T10:21:26;3.15;;;2.03;;
80101;SDS011;69407;44.966;19.622;2023-07-09T10:26:53;2.42;;;1.73;;
80101;SDS011;69407;44.966;19.622;2023-07-09T10:30:01;3.92;;;2.38;;
80101;SDS011;69407;44.966;19.622;2023-07-09T10:40:07;3.35;;;1.90;;
80101;SDS011;69407;44.966;19.622;2023-07-09T10:45:15;2.08;;;1.52;;
80101;SDS011;69407;44.966;19.622;2023-07-09T10:47:49;4.43;;;1.83;;
80101;SDS011;69407;44.966;19.622;2023-07-09T16:57:55;5.03;;;1.23;;
80101;SDS011;69407;44.966;19.622;2023-07-09T17:00:29;4.35;;;0.95;;
80101;SDS011;69407;44.966;19.622;2023-07-09T17:02:59;4.63;;;1.30;;
80101;SDS011;69407;44.966;19.622;2023-07-09T17:05:28;5.25;;;1.65;;
80101;SDS011;69407;44.966;19.622;2023-07-09T17:07:54;2.22;;;1.20;;
80101;SDS011;69407;44.966;19.622;2023-07-09T17:10:19;3.13;;;1.17;;
80101;SDS011;69407;44.966;19.622;2023-07-09T17:12:54;5.40;;;1.52;;
80101;SDS011;69407;44.966;19.622;2023-07-09T17:15:22;3.30;;;1.10;;
80101;SDS011;69407;44.966;19.622;2023-07-09T17:17:51;2.60;;;1.20;;
80101;SDS011;69407;44.966;19.622;2023-07-09T17:20:18;2.70;;;1.65;;
80101;SDS011;69407;44.966;19.622;2023-07-09T17:22:44;3.88;;;1.25;;
80101;SDS011;69407;44.966;19.622;2023-07-09T17:28:00;8.15;;;1.65;;
80101;SDS011;69407;44.966;19.622;2023-07-09T17:30:34;8.30;;;1.40;;
80101;SDS011;69407;44.966;19.622;2023-07-09T17:33:00;4.22;;;1.83;;
80101;SDS011;69407;44.966;19.622;2023-07-09T17:35:26;3.40;;;1.67;;
80101;SDS011;69407;44.966;19.622;2023-07-09T17:37:52;4.22;;;1.85;;
80101;SDS011;69407;44.966;19.622;2023-07-09T17:40:25;4.57;;;1.67;;
80101;SDS011;69407;44.966;19.622;2023-07-09T17:42:53;8.90;;;2.85;;
80101;SDS011;69407;44.966;19.622;2023-07-09T17:45:20;10.68;;;2.40;;
80101;SDS011;69407;44.966;19.622;2023-07-09T17:47:47;9.25;;;1.67;;
80101;SDS011;69407;44.966;19.622;2023-07-09T17:50:15;5.63;;;2.13;;
80101;SDS011;69407;44.966;19.622;2023-07-09T17:52:43;8.15;;;2.38;;
80101;SDS011;69407;44.966;19.622;2023-07-09T17:55:10;6.97;;;2.80;;
80101;SDS011;69407;44.966;19.622;2023-07-09T17:57:37;4.13;;;1.88;;
80101;SDS011;69407;44.966;19.622;2023-07-09T18:00:03;4.90;;;1.88;;
80101;SDS011;69407;44.966;19.622;2023-07-09T18:02:29;6.13;;;2.13;;
80101;SDS011;69407;44.966;19.622;2023-07-09T18:05:01;6.00;;;2.10;;
80101;SDS011;69407;44.966;19.622;2023-07-09T18:07:30;5.88;;;2.10;;
80101;SDS011;69407;44.966;19.622;2023-07-09T18:09:57;7.00;;;2.60;;
80101;SDS011;69407;44.966;19.622;2023-07-09T18:12:23;7.05;;;2.13;;
80101;SDS011;69407;44.966;19.622;2023-07-09T18:14:51;7.57;;;2.05;;
80101;SDS011;69407;44.966;19.622;2023-07-09T18:17:19;6.28;;;1.85;;
80101;SDS011;69407;44.966;19.622;2023-07-09T18:19:48;8.55;;;2.30;;
80101;SDS011;69407;44.966;19.622;2023-07-09T18:22:17;7.25;;;2.17;;
80101;SDS011;69407;44.966;19.622;2023-07-09T18:24:46;6.90;;;2.50;;
80101;SDS011;69407;44.966;19.622;2023-07-09T18:27:19;9.27;;;2.30;;
80101;SDS011;69407;44.966;19.622;2023-07-09T18:29:49;10.77;;;2.40;;
80101;SDS011;69407;44.966;19.622;2023-07-09T18:32:20;7.75;;;2.22;;
80101;SDS011;69407;44.966;19.622;2023-07-09T18:34:48;5.40;;;1.70;;
80101;SDS011;69407;44.966;19.622;2023-07-09T18:37:16;2.95;;;2.00;;
80101;SDS011;69407;44.966;19.622;2023-07-09T18:39:42;4.68;;;2.42;;
80101;SDS011;69407;44.966;19.622;2023-07-09T18:42:13;9.15;;;2.80;;
80101;SDS011;69407;44.966;19.622;2023-07-09T18:44:42;10.15;;;2.58;;
80101;SDS011;69407;44.966;19.622;2023-07-09T18:47:12;10.00;;;2.47;;
80101;SDS011;69407;44.966;19.622;2023-07-09T18:49:39;9.50;;;3.10;;
80101;SDS011;69407;44.966;19.622;2023-07-09T18:52:12;7.25;;;2.38;;
80101;SDS011;69407;44.966;19.622;2023-07-09T18:54:38;8.63;;;2.92;;
80101;SDS011;69407;44.966;19.622;2023-07-09T18:57:08;6.40;;;2.80;;
80101;SDS011;69407;44.966;19.622;2023-07-09T18:59:35;7.40;;;2.63;;
80101;SDS011;69407;44.966;19.622;2023-07-09T19:02:01;6.60;;;2.63;;
80101;SDS011;69407;44.966;19.622;2023-07-09T19:04:26;14.18;;;2.92;;
80101;SDS011;69407;44.966;19.622;2023-07-09T19:06:53;8.02;;;2.33;;
80101;SDS011;69407;44.966;19.622;2023-07-09T19:09:22;6.20;;;2.67;;
80101;SDS011;69407;44.966;19.622;2023-07-09T19:11:49;7.75;;;2.20;;
80101;SDS011;69407;44.966;19.622;2023-07-09T19:14:19;8.68;;;2.10;;
80101;SDS011;69407;44.966;19.622;2023-07-09T19:16:51;7.78;;;2.90;;
80101;SDS011;69407;44.966;19.622;2023-07-09T19:19:20;5.00;;;2.30;;
80101;SDS011;69407;44.966;19.622;2023-07-09T19:21:48;4.80;;;2.22;;
80101;SDS011;69407;44.966;19.622;2023-07-09T19:24:19;5.72;;;2.40;;
80101;SDS011;69407;44.966;19.622;2023-07-09T19:26:47;7.60;;;2.40;;
80101;SDS011;69407;44.966;19.622;2023-07-09T19:29:13;18.50;;;2.75;;
80101;SDS011;69407;44.966;19.622;2023-07-09T19:31:39;5.50;;;3.08;;
80101;SDS011;69407;44.966;19.622;2023-07-09T19:34:13;6.13;;;2.50;;
80101;SDS011;69407;44.966;19.622;2023-07-09T19:36:43;10.13;;;2.63;;
80101;SDS011;69407;44.966;19.622;2023-07-09T19:39:29;3.85;;;3.00;;
80101;SDS011;69407;44.966;19.622;2023-07-09T19:42:21;5.88;;;2.10;;
80101;SDS011;69407;44.966;19.622;2023-07-09T19:44:48;7.50;;;2.95;;
80101;SDS011;69407;44.966;19.622;2023-07-09T19:47:19;8.05;;;2.97;;
80101;SDS011;69407;44.966;19.622;2023-07-09T19:49:47;9.30;;;2.72;;
80101;SDS011;69407;44.966;19.622;2023-07-09T19:52:15;5.85;;;2.75;;
80101;SDS011;69407;44.966;19.622;2023-07-09T19:54:41;11.27;;;4.82;;
80101;SDS011;69407;44.966;19.622;2023-07-09T19:57:12;16.48;;;5.88;;
80101;SDS011;69407;44.966;19.622;2023-07-09T19:59:38;13.90;;;6.22;;
80101;SDS011;69407;44.966;19.622;2023-07-09T20:02:07;11.07;;;5.05;;
80101;SDS011;69407;44.966;19.622;2023-07-09T20:04:41;7.88;;;4.55;;
80101;SDS011;69407;44.966;19.622;2023-07-09T20:07:08;14.35;;;4.95;;
80101;SDS011;69407;44.966;19.622;2023-07-09T20:09:35;17.40;;;6.50;;
80101;SDS011;69407;44.966;19.622;2023-07-09T20:12:01;11.55;;;5.93;;
80101;SDS011;69407;44.966;19.622;2023-07-09T20:14:28;12.10;;;6.13;;
80101;SDS011;69407;44.966;19.622;2023-07-09T20:16:55;14.00;;;6.40;;
80101;SDS011;69407;44.966;19.622;2023-07-09T20:19:21;10.73;;;5.65;;
80101;SDS011;69407;44.966;19.622;2023-07-09T20:21:46;11.27;;;6.15;;
80101;SDS011;69407;44.966;19.622;2023-07-09T20:24:19;10.68;;;4.57;;
80101;SDS011;69407;44.966;19.622;2023-07-09T20:26:47;9.77;;;4.80;;
80101;SDS011;69407;44.966;19.622;2023-07-09T20:29:13;7.72;;;5.70;;
80101;SDS011;69407;44.966;19.622;2023-07-09T20:31:41;9.63;;;5.85;;
80101;SDS011;69407;44.966;19.622;2023-07-09T20:34:20;10.65;;;5.07;;
80101;SDS011;69407;44.966;19.622;2023-07-09T20:36:48;12.23;;;5.00;;
80101;SDS011;69407;44.966;19.622;2023-07-09T20:39:16;9.23;;;4.93;;
80101;SDS011;69407;44.966;19.622;2023-07-09T20:41:45;11.32;;;4.78;;
80101;SDS011;69407;44.966;19.622;2023-07-09T20:44:18;11.23;;;5.38;;
80101;SDS011;69407;44.966;19.622;2023-07-09T20:46:46;7.15;;;4.07;;
80101;SDS011;69407;44.966;19.622;2023-07-09T20:49:34;6.75;;;4.18;;
80101;SDS011;69407;44.966;19.622;2023-07-09T20:52:03;8.43;;;4.25;;
80101;SDS011;69407;44.966;19.622;2023-07-09T20:54:31;12.55;;;5.47;;
80101;SDS011;69407;44.966;19.622;2023-07-09T20:56:57;8.10;;;3.35;;
80101;SDS011;69407;44.966;19.622;2023-07-09T20:59:25;7.40;;;3.65;;
80101;SDS011;69407;44.966;19.622;2023-07-09T21:01:52;7.40;;;4.07;;
80101;SDS011;69407;44.966;19.622;2023-07-09T21:04:19;9.32;;;5.13;;
80101;SDS011;69407;44.966;19.622;2023-07-09T21:06:47;9.23;;;4.57;;
80101;SDS011;69407;44.966;19.622;2023-07-09T21:09:14;13.50;;;5.20;;
80101;SDS011;69407;44.966;19.622;2023-07-09T21:11:42;11.15;;;4.43;;